This is the latest recevied weather packets stored in our database for station/object CE3PA-5. If no packets are shown the sender has not sent any weather packets the latest 10 day(s).
| Time | Temp. | Humidity | Pressure | Rain* | Wind** | Luminosity | Snow |
|---|---|---|---|---|---|---|---|
| 1778382667 | 4.44° C | 22% | 756.3 hPa | - | - | - | - |
| 1778380866 | 5° C | 22% | 756.2 hPa | - | - | - | - |
| 1778373666 | 5° C | 24% | 755.8 hPa | - | - | - | - |
| 1778365568 | 11.67° C | 23% | 755 hPa | - | - | - | - |
| 1778364668 | 12.78° C | 23% | 754.9 hPa | - | - | - | - |
| 1778361066 | 18.33° C | 22% | 754.7 hPa | - | - | - | - |
| 1778360166 | 18.33° C | 22% | 754.7 hPa | - | - | - | - |
| 1778358367 | 19.44° C | 21% | 754.6 hPa | - | - | - | - |
| 1778357466 | 20.56° C | 21% | 754.6 hPa | - | - | - | - |
| 1778337666 | 18.33° C | 17% | 753.9 hPa | - | - | - | - |
| 1778332266 | 9.44° C | 20% | 753.1 hPa | - | - | - | - |
| 1778329564 | -0.56° C | 22% | 752.9 hPa | - | - | - | - |
| 1778328664 | -2.22° C | 22% | 752.8 hPa | - | - | - | - |
| 1778327763 | -3.33° C | 22% | 752.6 hPa | - | - | - | - |
| 1778325067 | -2.78° C | 22% | 752.4 hPa | - | - | - | - |
| 1778320566 | -2.78° C | 23% | 751.9 hPa | - | - | - | - |
| 1778318766 | -2.78° C | 23% | 751.6 hPa | - | - | - | - |
| 1778317865 | -2.78° C | 23% | 751.7 hPa | - | - | - | - |
| 1778315165 | -2.78° C | 23% | 751.6 hPa | - | - | - | - |
| 1778313365 | -2.22° C | 23% | 751.7 hPa | - | - | - | - |
| 1778312464 | -2.22° C | 24% | 751.6 hPa | - | - | - | - |
| 1778311564 | -2.22° C | 24% | 751.6 hPa | - | - | - | - |
| 1778310663 | -1.67° C | 24% | 751.7 hPa | - | - | - | - |
| 1778308863 | -2.22° C | 24% | 751.7 hPa | - | - | - | - |
| 1778307964 | -1.67° C | 24% | 751.9 hPa | - | - | - | - |
* Rain since midnight (hover to see other rain measurements)
** Current wind speed in m/s (hover to see current wind gust speed)